createdAt,value
2018-05-11T00:06:12.026Z,25.3
2018-05-11T00:16:11.213Z,25.3
2018-05-11T00:26:10.458Z,25.3
2018-05-11T00:36:09.635Z,25.3
2018-05-11T00:46:08.864Z,25.3
2018-05-11T00:56:08.120Z,25.3
2018-05-11T01:06:07.485Z,25.2
2018-05-11T01:16:06.880Z,25.2
2018-05-11T01:26:05.721Z,25.1
2018-05-11T01:36:05.211Z,25.1
2018-05-11T01:46:04.230Z,25.2
2018-05-11T01:56:03.496Z,25.1
2018-05-11T02:06:02.627Z,25.1
2018-05-11T02:16:02.146Z,25.1
2018-05-11T02:26:01.028Z,25.1
2018-05-11T02:36:00.474Z,25.1
2018-05-11T02:45:59.391Z,25.1
2018-05-11T02:55:58.668Z,25.1
2018-05-11T03:05:58.503Z,25.2
2018-05-11T03:15:57.180Z,25.2
2018-05-11T03:25:56.534Z,25.2
2018-05-11T03:35:55.488Z,25.2
2018-05-11T03:45:54.809Z,25.1
2018-05-11T03:55:54.214Z,25.1
2018-05-11T04:05:53.202Z,25.1
2018-05-11T04:15:52.352Z,25.2
2018-05-11T04:25:51.567Z,25.2
2018-05-11T04:35:50.767Z,25.1
2018-05-11T04:45:50.121Z,25.1
2018-05-11T04:55:49.319Z,25.1
2018-05-11T05:05:49.011Z,25
2018-05-11T05:15:48.110Z,25
2018-05-11T05:25:46.952Z,25
2018-05-11T05:35:46.360Z,24.9
2018-05-11T05:45:45.335Z,24.9
2018-05-11T05:55:44.881Z,24.9
2018-05-11T06:05:43.902Z,24.9
2018-05-11T06:15:43.048Z,24.9
2018-05-11T06:25:42.173Z,24.9
2018-05-11T06:35:41.641Z,24.9
2018-05-11T06:45:40.597Z,24.9
2018-05-11T06:55:39.880Z,24.9
2018-05-11T07:05:39.092Z,24.9
2018-05-11T07:15:38.317Z,24.9
2018-05-11T07:25:38.716Z,24.9
2018-05-11T07:35:37.013Z,24.9
2018-05-11T07:45:35.952Z,24.9
2018-05-11T07:55:35.234Z,24.9
2018-05-11T08:05:34.333Z,24.8
2018-05-11T08:15:33.957Z,24.8
2018-05-11T08:25:33.068Z,24.9
2018-05-11T08:35:31.999Z,24.9
2018-05-11T08:45:31.252Z,24.8
2018-05-11T08:55:30.607Z,24.8
2018-05-11T09:05:29.748Z,24.8
2018-05-11T09:15:29.270Z,24.9
2018-05-11T09:25:28.217Z,24.9
2018-05-11T09:35:27.312Z,24.9
2018-05-11T09:45:26.505Z,24.9
2018-05-11T09:55:25.709Z,24.9
2018-05-11T10:05:25.111Z,24.9
2018-05-11T10:15:24.180Z,24.9
2018-05-11T10:25:23.501Z,24.9
2018-05-11T10:35:22.627Z,24.9
2018-05-11T10:45:21.850Z,24.9
2018-05-11T10:55:21.365Z,24.9
2018-05-11T11:05:20.268Z,24.9
2018-05-11T11:15:19.796Z,25
2018-05-11T11:25:18.707Z,25
2018-05-11T11:35:17.952Z,25
2018-05-11T11:45:17.130Z,25
2018-05-11T11:55:16.509Z,25
2018-05-11T12:05:15.723Z,25
2018-05-11T12:15:15.045Z,25
2018-05-11T12:25:13.976Z,25.1
2018-05-11T12:35:13.492Z,25.1
2018-05-11T12:45:12.396Z,25.1
2018-05-11T12:55:11.762Z,25.1
2018-05-11T13:05:11.200Z,25.1
2018-05-11T13:15:10.071Z,25.1
2018-05-11T13:25:09.353Z,25
2018-05-11T13:35:08.603Z,25
2018-05-11T13:45:08.176Z,25
2018-05-11T13:55:06.921Z,25
2018-05-11T14:05:06.204Z,25
2018-05-11T14:15:05.353Z,25
2018-05-11T14:25:04.931Z,24.9
2018-05-11T14:35:03.934Z,24.9
2018-05-11T14:45:03.380Z,24.9
2018-05-11T14:55:02.263Z,24.9
2018-05-11T15:05:01.456Z,25
2018-05-11T15:15:00.758Z,25.1
2018-05-11T15:25:00.638Z,25.3
2018-05-11T15:34:59.198Z,25.2
2018-05-11T15:44:58.332Z,25.2
2018-05-11T15:54:58.093Z,25.4
2018-05-11T16:04:56.882Z,25.4
2018-05-11T16:14:56.085Z,25.1
2018-05-11T16:24:55.509Z,24.8
2018-05-11T16:34:54.522Z,24.6
2018-05-11T16:44:53.705Z,24.4
2018-05-11T16:54:52.859Z,24.3
2018-05-11T17:04:52.348Z,24.1
2018-05-11T17:14:51.416Z,24
2018-05-11T17:24:50.655Z,24.1
2018-05-11T17:34:49.784Z,24.1
2018-05-11T17:44:48.996Z,24.2
2018-05-11T17:54:48.309Z,24.2
2018-05-11T18:04:47.412Z,24.3
2018-05-11T18:14:46.636Z,24.3
2018-05-11T18:24:45.868Z,24.3
2018-05-11T18:34:45.066Z,24.3
2018-05-11T18:44:44.299Z,24.4
2018-05-11T18:54:44.073Z,24.4
2018-05-11T19:04:43.118Z,24.4
2018-05-11T19:14:42.637Z,24.4
2018-05-11T19:24:41.163Z,24.4
2018-05-11T19:34:40.410Z,24.4
2018-05-11T19:44:39.873Z,24.5
2018-05-11T19:54:38.803Z,24.7
2018-05-11T20:04:38.123Z,24.8
2018-05-11T20:14:37.237Z,24.8
2018-05-11T20:24:36.810Z,24.9
2018-05-11T20:34:35.850Z,24.8
2018-05-11T20:44:35.018Z,24.9
2018-05-11T20:54:34.587Z,24.9
2018-05-11T21:04:33.385Z,24.9
2018-05-11T21:14:32.600Z,24.9
2018-05-11T21:24:31.802Z,24.9
2018-05-11T21:34:30.977Z,24.9
2018-05-11T21:44:30.195Z,24.9
2018-05-11T21:54:29.592Z,24.9
2018-05-11T22:04:28.662Z,24.9
2018-05-11T22:14:28.492Z,24.9
2018-05-11T22:24:27.387Z,24.9
2018-05-11T22:34:26.605Z,24.9
2018-05-11T22:44:25.536Z,24.9
2018-05-11T22:54:24.766Z,24.9
2018-05-11T23:04:23.991Z,25
2018-05-11T23:14:23.422Z,25
2018-05-11T23:24:22.394Z,25
2018-05-11T23:34:21.601Z,24.9
2018-05-11T23:44:20.936Z,25
2018-05-11T23:54:20.046Z,25
